createdAt,value
2023-05-06T16:45:39.982Z,91430.13
2023-05-06T16:48:06.889Z,91429.47
2023-05-06T16:50:34.621Z,91438.59
2023-05-06T16:53:01.337Z,91431.84
2023-05-06T16:55:28.077Z,91434.84
2023-05-06T16:57:54.730Z,91445.44
2023-05-06T17:00:21.479Z,91445.84
2023-05-06T17:02:48.752Z,91453.41
2023-05-06T17:05:15.609Z,91453.06
2023-05-06T17:07:42.855Z,91462.09
2023-05-06T17:10:10.019Z,91463.25
2023-05-06T17:12:38.084Z,91473.03
2023-05-06T17:15:05.247Z,91463.25
2023-05-06T17:17:32.741Z,91471.94
2023-05-06T17:19:59.492Z,91468.91
2023-05-06T17:22:26.797Z,91464.41
2023-05-06T17:24:53.472Z,91471.16
2023-05-06T17:27:20.816Z,91477.56
2023-05-06T17:29:47.558Z,91483.19
2023-05-06T17:32:14.317Z,91485.84
2023-05-06T17:34:41.000Z,91490.00
2023-05-06T17:37:08.162Z,91499.75
2023-05-06T17:39:35.036Z,91504.28
2023-05-06T17:42:02.751Z,91513.34
2023-05-06T17:44:29.536Z,91507.66
2023-05-06T17:46:56.341Z,91510.28
2023-05-06T17:49:23.351Z,91515.56
2023-05-06T17:51:51.245Z,91524.63
2023-05-06T17:54:18.118Z,91526.09
2023-05-06T17:56:50.732Z,91530.25
2023-05-06T17:59:21.122Z,91528.66
2023-05-06T18:01:48.649Z,91543.38
2023-05-06T18:04:15.413Z,91539.59
2023-05-06T18:06:43.758Z,91537.28
2023-05-06T18:09:10.485Z,91541.78
2023-05-06T18:11:38.189Z,91545.13
2023-05-06T18:14:06.056Z,91554.84
2023-05-06T18:16:32.935Z,91557.88
2023-05-06T18:19:09.672Z,91554.19
2023-05-06T18:21:36.413Z,91559.81
2023-05-06T18:24:15.269Z,91553.81
2023-05-06T18:26:44.671Z,91559.81
2023-05-06T18:29:13.383Z,91564.69
2023-05-06T18:31:40.280Z,91559.56
2023-05-06T18:34:07.119Z,91558.84
2023-05-06T18:36:35.149Z,91570.97
2023-05-06T18:39:04.586Z,91559.75
2023-05-06T18:41:31.538Z,91564.31
2023-05-06T18:43:58.152Z,91571.44
2023-05-06T18:46:27.016Z,91571.81
2023-05-06T18:48:53.905Z,91568.81
2023-05-06T18:51:21.438Z,91576.31
2023-05-06T18:53:48.126Z,91576.31
2023-05-06T18:56:14.906Z,91579.31
2023-05-06T18:58:41.997Z,91574.06
2023-05-06T19:01:09.923Z,91588.38
2023-05-06T19:03:37.758Z,91589.88
2023-05-06T19:06:09.164Z,91584.16
2023-05-06T19:08:35.972Z,91598.50
2023-05-06T19:11:02.964Z,91596.44
2023-05-06T19:13:30.129Z,91598.56
2023-05-06T19:15:57.174Z,91599.06
2023-05-06T19:18:24.305Z,91606.09
2023-05-06T19:20:51.686Z,91592.53
2023-05-06T19:23:20.116Z,91605.00
2023-05-06T19:25:46.903Z,91603.94
2023-05-06T19:28:13.592Z,91599.78
2023-05-06T19:30:40.373Z,91607.59
2023-05-06T19:33:07.212Z,91611.72
2023-05-06T19:35:34.012Z,91608.03
2023-05-06T19:38:00.766Z,91617.84
2023-05-06T19:40:27.548Z,91620.06
2023-05-06T19:42:55.439Z,91619.31
2023-05-06T19:45:22.587Z,91608.94
2023-05-06T19:47:49.197Z,91601.91
2023-05-06T19:50:16.415Z,91607.63
2023-05-06T19:52:43.172Z,91601.75
2023-05-06T19:55:11.012Z,91607.34
2023-05-06T19:57:37.951Z,91601.34
2023-05-06T20:00:09.881Z,91605.50
2023-05-06T20:02:38.047Z,91612.25
2023-05-06T20:05:06.156Z,91615.28
2023-05-06T20:07:33.736Z,91614.84
2023-05-06T20:10:00.743Z,91621.63
2023-05-06T20:12:27.491Z,91613.84
2023-05-06T20:14:55.011Z,91610.16
2023-05-06T20:17:22.757Z,91603.06
2023-05-06T20:19:50.368Z,91603.28
2023-05-06T20:22:19.952Z,91606.97
2023-05-06T20:24:46.713Z,91605.47
2023-05-06T20:27:13.478Z,91593.50
2023-05-06T20:29:40.886Z,91603.38
2023-05-06T20:32:07.771Z,91602.31
2023-05-06T20:34:34.522Z,91599.78
2023-05-06T20:37:01.630Z,91596.84
2023-05-06T20:39:28.374Z,91599.81
2023-05-06T20:41:55.034Z,91597.25
2023-05-06T20:44:21.783Z,91598.75
2023-05-06T20:46:48.458Z,91598.28
2023-05-06T20:49:15.574Z,91597.50
2023-05-06T20:51:42.250Z,91602.16
2023-05-06T20:54:09.019Z,91604.28
2023-05-06T20:56:35.703Z,91605.53
2023-05-06T20:59:02.417Z,91606.25
2023-05-06T21:01:29.229Z,91611.22
2023-05-06T21:03:56.317Z,91603.38
2023-05-06T21:06:23.007Z,91604.06
2023-05-06T21:08:49.703Z,91607.44
2023-05-06T21:11:16.632Z,91607.41
2023-05-06T21:13:43.339Z,91603.44
2023-05-06T21:16:10.139Z,91600.69
2023-05-06T21:18:36.873Z,91605.66
2023-05-06T21:21:03.868Z,91601.53
2023-05-06T21:23:31.083Z,91604.16
2023-05-06T21:25:59.385Z,91604.97
2023-05-06T21:28:26.136Z,91586.81
2023-05-06T21:30:52.872Z,91603.06
2023-05-06T21:33:19.620Z,91614.78
2023-05-06T21:35:46.254Z,91617.44
2023-05-06T21:38:12.928Z,91612.53
2023-05-06T21:40:39.578Z,91608.56
2023-05-06T21:43:06.240Z,91613.66
2023-05-06T21:45:32.902Z,91617.47
2023-05-06T21:47:59.582Z,91618.16
2023-05-06T21:50:26.758Z,91617.06
2023-05-06T21:52:53.482Z,91616.84
2023-05-06T21:55:20.618Z,91607.78
2023-05-06T21:57:47.281Z,91615.50
2023-05-06T22:00:14.930Z,91614.00
2023-05-06T22:02:41.703Z,91607.59
2023-05-06T22:05:09.522Z,91605.78
2023-05-06T22:07:36.507Z,91609.16
2023-05-06T22:10:04.724Z,91611.00
2023-05-06T22:12:32.165Z,91612.22
2023-05-06T22:14:59.351Z,91611.84
2023-05-06T22:17:25.981Z,91616.09
2023-05-06T22:19:54.483Z,91612.38
2023-05-06T22:22:21.904Z,91615.31
2023-05-06T22:24:48.759Z,91615.78
2023-05-06T22:27:15.741Z,91607.81
2023-05-06T22:29:44.702Z,91610.06
2023-05-06T22:32:11.372Z,91617.94
2023-05-06T22:34:38.027Z,91618.19
2023-05-06T22:37:11.105Z,91613.34
2023-05-06T22:39:37.853Z,91613.00
2023-05-06T22:42:04.577Z,91619.69
2023-05-06T22:44:31.371Z,91615.84
2023-05-06T22:46:58.063Z,91619.50
2023-05-06T22:49:28.287Z,91617.25
2023-05-06T22:51:58.905Z,91613.53
2023-05-06T22:54:25.597Z,91609.78
2023-05-06T22:56:52.360Z,91620.81
2023-05-06T22:59:19.127Z,91619.31
2023-05-06T23:01:45.855Z,91619.72
2023-05-06T23:04:13.086Z,91616.22
2023-05-06T23:06:40.073Z,91615.75
2023-05-06T23:09:07.991Z,91610.94
2023-05-06T23:11:34.741Z,91609.22
2023-05-06T23:14:02.035Z,91613.34
2023-05-06T23:16:29.599Z,91609.16
2023-05-06T23:18:57.152Z,91609.06
2023-05-06T23:21:24.331Z,91610.25
2023-05-06T23:23:51.010Z,91612.88
2023-05-06T23:26:18.180Z,91604.66
2023-05-06T23:28:44.883Z,91605.09
2023-05-06T23:31:11.659Z,91601.00
2023-05-06T23:33:38.307Z,91607.03
2023-05-06T23:36:05.143Z,91606.28
2023-05-06T23:38:31.872Z,91584.53
2023-05-06T23:40:58.483Z,91595.09
2023-05-06T23:43:25.125Z,91592.41
2023-05-06T23:45:51.770Z,91592.00
2023-05-06T23:48:18.469Z,91591.22
2023-05-06T23:50:45.110Z,91586.63
2023-05-06T23:53:11.860Z,91587.31
2023-05-06T23:55:38.670Z,91588.78
2023-05-06T23:58:05.923Z,91589.84
